createdAt,value
2023-05-20T00:01:39.413Z,102043.56
2023-05-20T00:04:06.126Z,102042.44
2023-05-20T00:06:32.914Z,102044.69
2023-05-20T00:08:59.451Z,102040.34
2023-05-20T00:11:27.209Z,102048.25
2023-05-20T00:13:55.133Z,102047.13
2023-05-20T00:16:21.821Z,102055.53
2023-05-20T00:18:48.408Z,102048.13
2023-05-20T00:21:15.005Z,102050.66
2023-05-20T00:23:41.756Z,102053.03
2023-05-20T00:26:08.350Z,102042.78
2023-05-20T00:28:34.888Z,102047.56
2023-05-20T00:31:02.760Z,102044.66
2023-05-20T00:33:29.296Z,102041.56
2023-05-20T00:35:55.838Z,102036.91
2023-05-20T00:38:22.363Z,102041.00
2023-05-20T00:40:48.892Z,102039.59
2023-05-20T00:43:15.453Z,102040.03
2023-05-20T00:45:42.250Z,102036.06
2023-05-20T00:48:10.299Z,102036.34
2023-05-20T00:50:36.908Z,102037.50
2023-05-20T00:53:03.754Z,102034.97
2023-05-20T00:55:30.351Z,102038.06
2023-05-20T00:57:56.950Z,102040.84
2023-05-20T01:00:23.489Z,102041.16
2023-05-20T01:02:50.331Z,102037.66
2023-05-20T01:05:18.437Z,102031.63
2023-05-20T01:07:45.036Z,102034.81
2023-05-20T01:10:11.787Z,102034.97
2023-05-20T01:12:42.690Z,102033.59
2023-05-20T01:15:11.552Z,102038.63
2023-05-20T01:17:40.864Z,102043.53
2023-05-20T01:20:09.379Z,102038.06
2023-05-20T01:22:38.365Z,102035.25
2023-05-20T01:25:05.414Z,102040.88
2023-05-20T01:27:32.051Z,102032.59
2023-05-20T01:29:58.793Z,102037.91
2023-05-20T01:32:31.484Z,102036.66
2023-05-20T01:34:59.329Z,102030.22
2023-05-20T01:37:27.626Z,102028.94
2023-05-20T01:39:56.394Z,102027.81
2023-05-20T01:42:23.677Z,102024.59
2023-05-20T01:44:50.247Z,102025.56
2023-05-20T01:47:16.774Z,102022.34
2023-05-20T01:49:43.346Z,102034.41
2023-05-20T01:52:10.141Z,102023.47
2023-05-20T01:54:36.654Z,102018.41
2023-05-20T01:57:04.966Z,102016.97
2023-05-20T01:59:31.583Z,102019.25
2023-05-20T02:01:58.163Z,102020.47
2023-05-20T02:04:24.764Z,102014.19
2023-05-20T02:06:51.284Z,102021.63
2023-05-20T02:09:18.566Z,102018.13
2023-05-20T02:11:45.098Z,102012.59
2023-05-20T02:14:13.075Z,102011.78
2023-05-20T02:16:39.605Z,102016.41
2023-05-20T02:19:06.208Z,102009.53
2023-05-20T02:21:32.752Z,102008.56
2023-05-20T02:23:59.250Z,102019.47
2023-05-20T02:26:25.790Z,102015.81
2023-05-20T02:28:52.335Z,102016.91
2023-05-20T02:31:20.327Z,102018.16
2023-05-20T02:33:46.876Z,102018.59
2023-05-20T02:36:13.489Z,102021.28
2023-05-20T02:38:39.989Z,102019.28
2023-05-20T02:41:06.519Z,102018.84
2023-05-20T02:43:33.807Z,102013.38
2023-05-20T02:46:00.529Z,102018.00
2023-05-20T02:48:28.541Z,102008.56
2023-05-20T02:50:55.597Z,102012.91
2023-05-20T02:53:22.132Z,102013.19
2023-05-20T02:55:48.806Z,102003.53
2023-05-20T02:58:15.378Z,102003.78
2023-05-20T03:00:41.930Z,102005.88
2023-05-20T03:03:09.179Z,102003.34
2023-05-20T03:05:37.338Z,102001.69
2023-05-20T03:08:08.693Z,102007.00
2023-05-20T03:10:35.248Z,102007.25
2023-05-20T03:13:01.826Z,101998.16
2023-05-20T03:15:28.506Z,101998.44
2023-05-20T03:17:55.075Z,102002.44
2023-05-20T03:20:21.958Z,102003.41
2023-05-20T03:22:49.799Z,101994.88
2023-05-20T03:25:16.403Z,101996.53
2023-05-20T03:27:43.027Z,101997.94
2023-05-20T03:30:10.138Z,101991.78
2023-05-20T03:32:36.728Z,101987.84
2023-05-20T03:35:03.505Z,101992.19
2023-05-20T03:37:30.040Z,101987.56
2023-05-20T03:39:57.890Z,101989.53
2023-05-20T03:42:24.422Z,101984.22
2023-05-20T03:44:50.990Z,101989.78
2023-05-20T03:47:17.535Z,101988.09
2023-05-20T03:49:44.070Z,101987.50
2023-05-20T03:52:10.618Z,101986.16
2023-05-20T03:54:37.156Z,101982.53
2023-05-20T03:57:05.460Z,101988.69
2023-05-20T03:59:32.064Z,101990.03
2023-05-20T04:01:58.583Z,101986.28
2023-05-20T04:04:25.170Z,101991.06
2023-05-20T04:06:51.686Z,101991.50
2023-05-20T04:09:18.237Z,101992.06
2023-05-20T04:11:44.814Z,101996.78
2023-05-20T04:14:12.654Z,101992.44
2023-05-20T04:16:39.265Z,101992.19
2023-05-20T04:19:05.904Z,101990.94
2023-05-20T04:21:32.723Z,102000.03
2023-05-20T04:23:59.289Z,102000.84
2023-05-20T04:26:25.853Z,102001.97
2023-05-20T04:28:52.346Z,102012.03
2023-05-20T04:31:20.240Z,102004.34
2023-05-20T04:33:46.893Z,102007.34
2023-05-20T04:36:13.449Z,102003.41
2023-05-20T04:38:39.966Z,102010.56
2023-05-20T04:41:06.503Z,102002.91
2023-05-20T04:43:33.040Z,102000.97
2023-05-20T04:46:00.042Z,102008.22
2023-05-20T04:48:27.938Z,102000.84
2023-05-20T04:50:54.486Z,101998.00
2023-05-20T04:53:21.027Z,102009.09
2023-05-20T04:55:48.082Z,101992.75
2023-05-20T04:58:14.601Z,101992.59
2023-05-20T05:00:41.347Z,101994.63
2023-05-20T05:03:08.091Z,101984.13
2023-05-20T05:05:36.215Z,101988.06
2023-05-20T05:08:02.911Z,101985.69
2023-05-20T05:10:29.605Z,101986.81
2023-05-20T05:12:56.133Z,101982.59
2023-05-20T05:15:22.654Z,101984.72
2023-05-20T05:17:49.226Z,101982.06
2023-05-20T05:20:16.022Z,101984.16
2023-05-20T05:22:44.058Z,101983.31
2023-05-20T05:25:11.634Z,101986.44
2023-05-20T05:27:39.061Z,101982.94
2023-05-20T05:30:07.102Z,101983.38
2023-05-20T05:32:34.234Z,101974.94
2023-05-20T05:35:00.765Z,101974.38
2023-05-20T05:37:27.332Z,101984.34
2023-05-20T05:39:55.224Z,101980.13
2023-05-20T05:42:21.812Z,101981.38
2023-05-20T05:44:48.812Z,101984.75
2023-05-20T05:47:15.469Z,101983.78
2023-05-20T05:49:42.018Z,101977.59
2023-05-20T05:52:08.632Z,101988.66
2023-05-20T05:54:35.172Z,101981.34
2023-05-20T05:57:04.542Z,101974.34
2023-05-20T05:59:32.342Z,101977.81
2023-05-20T06:01:58.890Z,101978.53
2023-05-20T06:04:25.633Z,101969.25
2023-05-20T06:06:52.160Z,101971.47
2023-05-20T06:09:18.646Z,101964.88
2023-05-20T06:11:45.176Z,101965.81
2023-05-20T06:14:13.106Z,101958.53
2023-05-20T06:16:39.716Z,101959.19
2023-05-20T06:19:06.287Z,101956.78
2023-05-20T06:21:32.938Z,101950.13
2023-05-20T06:23:59.532Z,101943.53
2023-05-20T06:26:26.052Z,101949.78
2023-05-20T06:28:52.576Z,101944.53
2023-05-20T06:31:20.494Z,101944.25
2023-05-20T06:33:47.051Z,101953.47
2023-05-20T06:36:13.735Z,101951.44
2023-05-20T06:38:40.294Z,101946.06
2023-05-20T06:41:06.844Z,101937.28
2023-05-20T06:43:33.386Z,101938.13
2023-05-20T06:46:00.021Z,101932.47
2023-05-20T06:48:28.029Z,101930.84
2023-05-20T06:50:54.593Z,101931.22
2023-05-20T06:53:21.120Z,101927.81
2023-05-20T06:55:47.830Z,101935.22
2023-05-20T06:58:14.388Z,101927.06
2023-05-20T07:00:40.947Z,101930.78
2023-05-20T07:03:07.544Z,101927.19
2023-05-20T07:05:35.727Z,101935.97
2023-05-20T07:08:02.434Z,101928.53
2023-05-20T07:10:29.506Z,101927.53
2023-05-20T07:12:56.135Z,101925.94
2023-05-20T07:15:22.645Z,101924.81
2023-05-20T07:17:49.217Z,101925.06
2023-05-20T07:20:15.820Z,101928.06
2023-05-20T07:22:43.690Z,101931.13
2023-05-20T07:25:10.813Z,101928.31
2023-05-20T07:27:37.436Z,101924.84
2023-05-20T07:30:04.704Z,101921.19
2023-05-20T07:32:31.249Z,101927.63
2023-05-20T07:34:57.845Z,101914.41
2023-05-20T07:37:24.357Z,101904.38
2023-05-20T07:39:52.267Z,101905.59
2023-05-20T07:42:18.798Z,101907.75
2023-05-20T07:44:45.400Z,101902.59
2023-05-20T07:47:13.824Z,101902.13
2023-05-20T07:49:40.350Z,101901.28
2023-05-20T07:52:07.052Z,101900.28
2023-05-20T07:54:34.686Z,101889.88
2023-05-20T07:57:02.557Z,101894.09
2023-05-20T07:59:29.084Z,101892.06
2023-05-20T08:01:55.673Z,101889.38
2023-05-20T08:04:22.279Z,101882.16
2023-05-20T08:06:48.869Z,101886.16
2023-05-20T08:09:15.469Z,101884.00
2023-05-20T08:11:42.009Z,101885.19
2023-05-20T08:14:09.865Z,101876.09
2023-05-20T08:16:36.674Z,101887.97
2023-05-20T08:19:03.467Z,101883.94
2023-05-20T08:21:30.062Z,101875.06
2023-05-20T08:23:56.614Z,101868.84
2023-05-20T08:26:23.110Z,101878.00
2023-05-20T08:28:49.649Z,101876.50
2023-05-20T08:31:18.049Z,101875.09
2023-05-20T08:33:44.593Z,101872.19
2023-05-20T08:36:11.216Z,101871.97
2023-05-20T08:38:37.759Z,101872.38
2023-05-20T08:41:04.353Z,101879.97
2023-05-20T08:43:30.890Z,101873.53
2023-05-20T08:45:57.470Z,101870.47
2023-05-20T08:48:26.705Z,101876.19
2023-05-20T08:50:55.811Z,101862.25
2023-05-20T08:53:22.687Z,101863.56
2023-05-20T08:55:54.698Z,101847.19
2023-05-20T08:58:22.103Z,101846.44
2023-05-20T09:00:48.862Z,101850.06
2023-05-20T09:03:15.441Z,101851.91
2023-05-20T09:05:43.333Z,101845.81
2023-05-20T09:08:11.148Z,101845.81
2023-05-20T09:10:38.681Z,101849.78
2023-05-20T09:13:06.510Z,101846.03
2023-05-20T09:15:33.719Z,101846.41
2023-05-20T09:18:00.969Z,101846.19
2023-05-20T09:20:28.108Z,101840.31
2023-05-20T09:22:59.787Z,101843.84
2023-05-20T09:25:26.386Z,101845.44
2023-05-20T09:27:52.980Z,101850.06
2023-05-20T09:30:19.804Z,101845.19
2023-05-20T09:32:53.143Z,101836.16
2023-05-20T09:35:20.407Z,101836.34
2023-05-20T09:37:48.411Z,101839.81
2023-05-20T09:40:17.513Z,101842.59
2023-05-20T09:42:50.361Z,101844.91
2023-05-20T09:45:17.042Z,101838.97
2023-05-20T09:47:45.455Z,101838.00
2023-05-20T09:50:12.792Z,101846.19
2023-05-20T09:52:39.724Z,101832.44
2023-05-20T09:55:07.704Z,101818.63
2023-05-20T09:57:37.356Z,101826.09
2023-05-20T10:00:05.695Z,101825.63
2023-05-20T10:02:33.584Z,101817.59
2023-05-20T10:05:06.453Z,101818.06
2023-05-20T10:08:14.551Z,101809.97
2023-05-20T10:10:55.318Z,101822.50
2023-05-20T10:13:38.639Z,101811.38
2023-05-20T10:16:17.178Z,101808.25
2023-05-20T10:18:55.049Z,101814.00
2023-05-20T10:21:22.795Z,101806.38
2023-05-20T10:23:49.366Z,101802.13
2023-05-20T10:26:15.913Z,101806.44
2023-05-20T10:28:43.812Z,101797.03
2023-05-20T10:31:18.292Z,101792.38
2023-05-20T10:33:46.059Z,101783.91
2023-05-20T10:36:22.919Z,101794.06
2023-05-20T10:38:53.866Z,101784.19
2023-05-20T10:41:21.995Z,101779.81
2023-05-20T10:43:59.876Z,101773.50
2023-05-20T10:46:33.896Z,101773.84
2023-05-20T10:49:05.568Z,101769.28
2023-05-20T10:51:36.083Z,101772.97
2023-05-20T10:54:02.762Z,101772.31
2023-05-20T10:56:29.283Z,101774.03
2023-05-20T10:58:57.522Z,101778.56
2023-05-20T11:01:26.100Z,101774.75
2023-05-20T11:03:54.620Z,101768.34
2023-05-20T11:06:26.276Z,101767.41
2023-05-20T11:08:52.844Z,101754.16
2023-05-20T11:11:19.394Z,101753.56
2023-05-20T11:13:50.756Z,101767.72
2023-05-20T11:16:19.941Z,101766.56
2023-05-20T11:18:48.765Z,101764.31
2023-05-20T11:21:15.351Z,101765.38
2023-05-20T11:23:42.403Z,101756.84
2023-05-20T11:26:09.018Z,101755.63
2023-05-20T11:28:35.797Z,101757.03
2023-05-20T11:31:02.470Z,101759.53
2023-05-20T11:33:30.463Z,101761.84
2023-05-20T11:35:57.167Z,101763.09
2023-05-20T11:38:24.718Z,101745.22
2023-05-20T11:40:53.070Z,101745.41
2023-05-20T11:43:20.532Z,101738.34
2023-05-20T11:45:52.346Z,101747.53
2023-05-20T11:48:19.255Z,101744.59
2023-05-20T11:50:48.322Z,101741.84
2023-05-20T11:53:16.624Z,101738.91
2023-05-20T11:55:47.570Z,101734.34
2023-05-20T11:58:16.420Z,101725.88
2023-05-20T12:00:50.666Z,101737.91
2023-05-20T12:03:22.134Z,101735.19
2023-05-20T12:05:50.537Z,101742.31
2023-05-20T12:08:17.384Z,101727.16
2023-05-20T12:10:43.932Z,101726.25
2023-05-20T12:13:10.831Z,101714.06
2023-05-20T12:15:37.475Z,101723.25
2023-05-20T12:18:04.243Z,101715.22
2023-05-20T12:20:31.420Z,101713.34
2023-05-20T12:22:59.297Z,101720.25
2023-05-20T12:25:25.871Z,101713.19
2023-05-20T12:27:52.441Z,101714.41
2023-05-20T12:30:20.728Z,101709.44
2023-05-20T12:32:48.501Z,101713.38
2023-05-20T12:35:15.374Z,101716.72
2023-05-20T12:37:43.123Z,101702.75
2023-05-20T12:40:12.268Z,101708.16
2023-05-20T12:42:39.791Z,101705.63
2023-05-20T12:45:07.933Z,101705.22
2023-05-20T12:47:34.903Z,101712.69
2023-05-20T12:50:01.915Z,101707.94
2023-05-20T12:52:28.616Z,101700.69
2023-05-20T12:54:55.706Z,101701.94
2023-05-20T12:57:23.811Z,101708.19
2023-05-20T12:59:50.705Z,101714.00
2023-05-20T13:02:17.493Z,101713.19
2023-05-20T13:04:44.078Z,101711.72
2023-05-20T13:07:10.661Z,101706.69
2023-05-20T13:09:37.208Z,101715.66
2023-05-20T13:12:04.165Z,101712.53
2023-05-20T13:14:32.016Z,101705.25
2023-05-20T13:16:58.725Z,101710.66
2023-05-20T13:19:25.452Z,101708.34
2023-05-20T13:21:52.210Z,101709.63
2023-05-20T13:24:18.744Z,101704.81
2023-05-20T13:26:45.370Z,101710.22
2023-05-20T13:29:12.015Z,101707.31
2023-05-20T13:31:40.015Z,101701.06
2023-05-20T13:34:06.623Z,101700.44
2023-05-20T13:36:33.465Z,101713.75
2023-05-20T13:39:00.027Z,101701.00
2023-05-20T13:41:26.522Z,101699.41
2023-05-20T13:43:53.241Z,101697.34
2023-05-20T13:46:19.829Z,101696.31
2023-05-20T13:48:47.931Z,101689.19
2023-05-20T13:51:14.482Z,101690.66
2023-05-20T13:53:41.042Z,101680.28
2023-05-20T13:56:07.709Z,101678.63
2023-05-20T13:58:34.230Z,101678.22
2023-05-20T14:01:00.764Z,101671.38
2023-05-20T14:03:27.418Z,101680.09
2023-05-20T14:05:55.652Z,101668.03
2023-05-20T14:08:22.206Z,101668.66
2023-05-20T14:10:48.944Z,101667.63
2023-05-20T14:13:15.622Z,101659.50
2023-05-20T14:15:42.669Z,101662.41
2023-05-20T14:18:09.266Z,101668.84
2023-05-20T14:20:36.098Z,101653.88
2023-05-20T14:23:04.140Z,101642.44
2023-05-20T14:25:30.707Z,101638.31
2023-05-20T14:27:57.220Z,101636.22
2023-05-20T14:30:23.904Z,101630.19
2023-05-20T14:32:50.668Z,101637.88
2023-05-20T14:35:17.253Z,101628.72
2023-05-20T14:37:43.813Z,101632.06
2023-05-20T14:40:12.390Z,101625.63
2023-05-20T14:42:39.297Z,101620.38
2023-05-20T14:45:07.115Z,101627.63
2023-05-20T14:47:33.759Z,101628.03
2023-05-20T14:50:00.641Z,101622.66
2023-05-20T14:52:27.180Z,101618.28
2023-05-20T14:54:53.770Z,101611.84
2023-05-20T14:57:21.700Z,101605.63
2023-05-20T14:59:48.257Z,101601.88
2023-05-20T15:02:15.797Z,101603.31
2023-05-20T15:04:42.397Z,101599.19
2023-05-20T15:07:09.154Z,101602.13
2023-05-20T15:09:35.971Z,101602.50
2023-05-20T15:12:02.509Z,101602.06
2023-05-20T15:14:30.378Z,101602.88
2023-05-20T15:16:57.046Z,101601.19
2023-05-20T15:19:23.697Z,101594.31
2023-05-20T15:21:50.236Z,101590.34
2023-05-20T15:24:16.790Z,101596.94
2023-05-20T15:26:43.409Z,101589.00
2023-05-20T15:29:09.991Z,101588.84
2023-05-20T15:31:37.917Z,101577.25
2023-05-20T15:34:04.628Z,101583.53
2023-05-20T15:36:31.563Z,101575.66
2023-05-20T15:38:58.095Z,101576.06
2023-05-20T15:41:24.619Z,101584.16
2023-05-20T15:43:51.216Z,101576.25
2023-05-20T15:46:17.859Z,101570.66
2023-05-20T15:48:45.776Z,101583.16
2023-05-20T15:51:12.390Z,101572.56
2023-05-20T15:53:40.735Z,101578.16
2023-05-20T15:56:08.699Z,101576.47
2023-05-20T15:58:35.220Z,101577.09
2023-05-20T16:01:01.864Z,101570.44
2023-05-20T16:03:28.718Z,101568.38
2023-05-20T16:05:56.630Z,101573.38
2023-05-20T16:08:23.169Z,101571.25
2023-05-20T16:10:49.776Z,101564.63
2023-05-20T16:13:16.317Z,101564.63
2023-05-20T16:15:42.899Z,101575.41
2023-05-20T16:18:09.569Z,101567.50
2023-05-20T16:20:36.301Z,101573.69
2023-05-20T16:23:04.306Z,101573.84
2023-05-20T16:25:30.821Z,101567.81
2023-05-20T16:27:57.345Z,101563.47
2023-05-20T16:30:24.147Z,101569.47
2023-05-20T16:32:50.742Z,101569.28
2023-05-20T16:35:17.316Z,101572.75
2023-05-20T16:37:43.833Z,101571.47
2023-05-20T16:40:12.565Z,101578.97
2023-05-20T16:42:39.096Z,101576.00
2023-05-20T16:45:06.725Z,101576.81
2023-05-20T16:47:33.289Z,101571.63
2023-05-20T16:49:59.795Z,101566.78
2023-05-20T16:52:26.324Z,101572.56
2023-05-20T16:54:52.886Z,101582.97
2023-05-20T16:57:20.905Z,101569.06
2023-05-20T16:59:47.488Z,101575.75
2023-05-20T17:02:14.279Z,101594.03
2023-05-20T17:04:41.101Z,101595.00
2023-05-20T17:07:07.669Z,101581.78
2023-05-20T17:09:34.185Z,101597.09
2023-05-20T17:12:00.780Z,101595.81
2023-05-20T17:14:28.656Z,101596.66
2023-05-20T17:16:55.264Z,101587.91
2023-05-20T17:19:21.913Z,101595.75
2023-05-20T17:21:48.534Z,101601.38
2023-05-20T17:24:15.333Z,101606.75
2023-05-20T17:26:41.927Z,101605.69
2023-05-20T17:29:08.497Z,101605.03
2023-05-20T17:31:36.345Z,101599.84
2023-05-20T17:34:02.933Z,101604.16
2023-05-20T17:36:29.732Z,101600.25
2023-05-20T17:38:56.266Z,101610.59
2023-05-20T17:41:22.797Z,101598.31
2023-05-20T17:43:49.371Z,101609.72
2023-05-20T17:46:16.202Z,101601.63
2023-05-20T17:48:44.155Z,101605.06
2023-05-20T17:51:10.673Z,101613.09
2023-05-20T17:53:37.194Z,101609.50
2023-05-20T17:56:04.272Z,101613.25
2023-05-20T17:58:30.783Z,101610.75
2023-05-20T18:00:57.472Z,101610.28
2023-05-20T18:03:24.064Z,101609.00
2023-05-20T18:05:53.784Z,101610.28
2023-05-20T18:08:21.711Z,101603.88
2023-05-20T18:10:48.216Z,101604.41
2023-05-20T18:13:17.326Z,101603.75
2023-05-20T18:15:44.108Z,101609.09
2023-05-20T18:18:10.736Z,101608.00
2023-05-20T18:20:37.511Z,101608.75
2023-05-20T18:23:05.572Z,101608.38
2023-05-20T18:25:32.074Z,101610.34
2023-05-20T18:27:58.661Z,101609.28
2023-05-20T18:30:25.325Z,101611.09
2023-05-20T18:32:51.907Z,101615.75
2023-05-20T18:35:18.594Z,101617.19
2023-05-20T18:37:45.162Z,101621.00
2023-05-20T18:40:13.742Z,101628.25
2023-05-20T18:42:40.316Z,101617.41
2023-05-20T18:45:08.121Z,101612.38
2023-05-20T18:47:34.739Z,101608.81
2023-05-20T18:50:01.303Z,101615.75
2023-05-20T18:52:27.953Z,101611.13
2023-05-20T18:54:54.535Z,101615.19
2023-05-20T18:57:22.619Z,101619.78
2023-05-20T18:59:49.239Z,101621.34
2023-05-20T19:02:17.270Z,101616.34
2023-05-20T19:04:44.019Z,101628.13
2023-05-20T19:07:10.690Z,101631.00
2023-05-20T19:09:37.182Z,101623.50
2023-05-20T19:12:04.139Z,101624.69
2023-05-20T19:14:32.055Z,101622.13
2023-05-20T19:16:58.662Z,101627.84
2023-05-20T19:19:25.270Z,101624.44
2023-05-20T19:21:51.871Z,101629.91
2023-05-20T19:24:18.421Z,101632.97
2023-05-20T19:26:45.189Z,101635.19
2023-05-20T19:29:11.701Z,101636.41
2023-05-20T19:31:39.668Z,101639.16
2023-05-20T19:34:06.293Z,101633.50
2023-05-20T19:36:32.813Z,101634.06
2023-05-20T19:38:59.342Z,101636.81
2023-05-20T19:41:25.883Z,101637.16
2023-05-20T19:43:52.437Z,101632.78
2023-05-20T19:46:19.070Z,101632.97
2023-05-20T19:48:46.968Z,101631.31
2023-05-20T19:51:13.532Z,101635.88
2023-05-20T19:53:40.029Z,101634.38
2023-05-20T19:56:06.640Z,101632.53
2023-05-20T19:58:33.248Z,101640.09
2023-05-20T20:00:59.776Z,101629.72
2023-05-20T20:03:26.298Z,101637.94
2023-05-20T20:05:54.235Z,101631.47
2023-05-20T20:08:20.828Z,101637.19
2023-05-20T20:10:47.368Z,101638.75
2023-05-20T20:13:13.909Z,101639.59
2023-05-20T20:15:40.486Z,101635.91
2023-05-20T20:18:07.109Z,101645.97
2023-05-20T20:20:33.677Z,101641.63
2023-05-20T20:23:01.633Z,101637.44
2023-05-20T20:25:28.201Z,101647.91
2023-05-20T20:27:54.702Z,101640.03
2023-05-20T20:30:21.222Z,101642.06
2023-05-20T20:32:47.786Z,101635.19
2023-05-20T20:35:14.406Z,101636.00
2023-05-20T20:37:41.002Z,101629.53
2023-05-20T20:40:09.588Z,101636.25
2023-05-20T20:42:36.141Z,101635.44
2023-05-20T20:45:02.738Z,101633.75
2023-05-20T20:47:29.454Z,101633.47
2023-05-20T20:49:56.527Z,101636.78
2023-05-20T20:52:23.118Z,101634.66
2023-05-20T20:54:49.627Z,101639.03
2023-05-20T20:57:17.631Z,101631.91
2023-05-20T20:59:44.175Z,101636.97
2023-05-20T21:02:10.727Z,101632.31
2023-05-20T21:04:37.278Z,101627.28
2023-05-20T21:07:04.025Z,101628.66
2023-05-20T21:09:30.581Z,101628.00
2023-05-20T21:11:57.094Z,101617.56
2023-05-20T21:14:24.977Z,101623.84
2023-05-20T21:16:51.610Z,101615.63
2023-05-20T21:19:18.355Z,101612.66
2023-05-20T21:21:44.902Z,101604.97
2023-05-20T21:24:11.426Z,101606.13
2023-05-20T21:26:37.904Z,101612.03
2023-05-20T21:29:04.490Z,101609.03
2023-05-20T21:31:32.470Z,101613.09
2023-05-20T21:33:59.049Z,101614.44
2023-05-20T21:36:25.569Z,101614.94
2023-05-20T21:38:52.086Z,101616.31
2023-05-20T21:41:18.636Z,101615.66
2023-05-20T21:43:45.142Z,101612.13
2023-05-20T21:46:11.743Z,101611.47
2023-05-20T21:48:39.630Z,101604.44
2023-05-20T21:51:06.170Z,101604.13
2023-05-20T21:53:32.704Z,101609.31
2023-05-20T21:55:59.342Z,101602.81
2023-05-20T21:58:25.839Z,101606.84
2023-05-20T22:00:52.368Z,101603.88
2023-05-20T22:03:19.029Z,101601.50
2023-05-20T22:05:46.954Z,101604.53
2023-05-20T22:08:13.856Z,101614.75
2023-05-20T22:10:40.429Z,101609.22
2023-05-20T22:13:07.007Z,101603.88
2023-05-20T22:15:33.811Z,101607.41
2023-05-20T22:18:00.553Z,101604.72
2023-05-20T22:20:27.198Z,101595.19
2023-05-20T22:22:55.062Z,101589.19
2023-05-20T22:25:21.591Z,101586.31
2023-05-20T22:27:48.093Z,101590.19
2023-05-20T22:30:14.633Z,101588.28
2023-05-20T22:32:41.199Z,101588.00
2023-05-20T22:35:08.857Z,101585.31
2023-05-20T22:37:35.411Z,101581.78
2023-05-20T22:40:03.720Z,101583.81
2023-05-20T22:42:30.255Z,101577.44
2023-05-20T22:44:56.775Z,101581.44
2023-05-20T22:47:23.338Z,101585.50
2023-05-20T22:49:49.875Z,101574.78
2023-05-20T22:52:16.486Z,101580.13
2023-05-20T22:54:43.027Z,101573.09
2023-05-20T22:57:10.907Z,101568.25
2023-05-20T22:59:37.422Z,101566.94
2023-05-20T23:02:04.405Z,101570.94
2023-05-20T23:04:31.024Z,101568.09
2023-05-20T23:06:59.403Z,101558.91
2023-05-20T23:09:26.438Z,101551.38
2023-05-20T23:11:53.022Z,101553.56
2023-05-20T23:14:20.936Z,101546.69
2023-05-20T23:16:47.573Z,101543.66
2023-05-20T23:19:14.454Z,101538.84
2023-05-20T23:21:41.184Z,101540.31
2023-05-20T23:24:07.734Z,101541.84
2023-05-20T23:26:34.300Z,101535.16
2023-05-20T23:29:00.933Z,101540.00
2023-05-20T23:31:28.831Z,101543.00
2023-05-20T23:33:55.468Z,101539.97
2023-05-20T23:36:22.018Z,101546.31
2023-05-20T23:38:48.566Z,101536.13
2023-05-20T23:41:15.076Z,101530.13
2023-05-20T23:43:41.603Z,101533.09
2023-05-20T23:46:08.310Z,101528.91
2023-05-20T23:48:36.252Z,101517.22
2023-05-20T23:51:02.947Z,101525.53
2023-05-20T23:53:29.576Z,101528.41
2023-05-20T23:55:56.118Z,101522.38
2023-05-20T23:58:22.680Z,101523.53
